Time;durP1;ratioP1;P1;durP2;ratioP2;P2;SDS_P1;SDS_P2;PMS_P1;PMS_P2;Temp;Humidity;BMP_temperature;BMP_pressure;BME280_temperature;BME280_humidity;BME280_pressure;Samples;Min_cycle;Max_cycle;Signal;HPM_P1;HPM_P2
2023/06/27 00:00:28;;;;;;;4.57;1.27;;;;;18.40;96439.00;;;;5012977;28;20194;-55
2023/06/27 00:02:55;;;;;;;0.77;0.77;;;;;18.40;96435.00;;;;5012599;28;20221;-56
2023/06/27 00:05:23;;;;;;;1.13;1.13;;;;;18.40;96437.00;;;;5016167;28;20193;-56
2023/06/27 00:07:50;;;;;;;2.30;0.77;;;;;18.40;96433.00;;;;5016730;28;20194;-56
2023/06/27 00:10:18;;;;;;;0.50;0.50;;;;;18.30;96432.00;;;;5016202;28;20224;-56
2023/06/27 00:12:45;;;;;;;1.23;1.23;;;;;18.30;96445.00;;;;5016224;28;20219;-56
2023/06/27 00:15:12;;;;;;;1.00;1.00;;;;;18.30;96441.00;;;;5014909;28;20197;-55
2023/06/27 00:17:41;;;;;;;1.90;0.97;;;;;18.40;96439.00;;;;5016418;28;20197;-56
2023/06/27 00:20:10;;;;;;;1.03;0.90;;;;;18.50;96444.00;;;;5016074;28;20201;-56
2023/06/27 00:22:39;;;;;;;0.90;0.90;;;;;18.40;96439.00;;;;5016017;28;20292;-56
2023/06/27 00:25:10;;;;;;;0.53;0.53;;;;;18.40;96449.00;;;;5016485;28;20265;-56
2023/06/27 00:27:37;;;;;;;0.70;0.70;;;;;18.40;96442.00;;;;5015952;28;20351;-56
2023/06/27 00:30:06;;;;;;;1.50;1.10;;;;;18.40;96446.00;;;;5015944;28;20197;-56
2023/06/27 00:32:34;;;;;;;0.60;0.60;;;;;18.20;96445.00;;;;5015745;28;20692;-56
2023/06/27 00:35:03;;;;;;;0.90;0.90;;;;;18.30;96439.00;;;;5016034;28;20189;-56
2023/06/27 00:37:30;;;;;;;0.83;0.83;;;;;18.30;96444.00;;;;5015992;28;20248;-56
2023/06/27 00:39:58;;;;;;;0.90;0.90;;;;;18.20;96414.00;;;;5015669;28;20193;-56
2023/06/27 00:42:27;;;;;;;0.60;0.60;;;;;18.20;96439.00;;;;5015624;28;20212;-56
2023/06/27 00:44:54;;;;;;;0.40;0.40;;;;;18.00;96445.00;;;;5015851;28;20676;-56
2023/06/27 00:47:22;;;;;;;0.50;0.50;;;;;17.90;96453.00;;;;5015803;28;20553;-56
2023/06/27 00:49:50;;;;;;;0.50;0.50;;;;;17.90;96443.00;;;;5015507;28;20193;-56
2023/06/27 00:52:19;;;;;;;0.63;0.63;;;;;18.00;96445.00;;;;5015214;28;20251;-56
2023/06/27 00:54:46;;;;;;;0.50;0.50;;;;;17.90;96452.00;;;;5015497;28;20202;-56
2023/06/27 00:57:14;;;;;;;1.13;1.03;;;;;17.90;96461.00;;;;5015343;28;20194;-56
2023/06/27 00:59:44;;;;;;;0.60;0.60;;;;;17.80;96457.00;;;;5015353;28;20189;-56
2023/06/27 01:02:12;;;;;;;0.70;0.70;;;;;17.80;96458.00;;;;5015499;28;20569;-56
2023/06/27 01:04:40;;;;;;;7.63;0.93;;;;;17.90;96457.00;;;;5015226;28;20193;-56
2023/06/27 01:07:11;;;;;;;0.70;0.70;;;;;17.90;96453.00;;;;5015787;28;20205;-56
2023/06/27 01:09:49;;;;;;;0.30;0.30;;;;;17.90;96458.00;;;;5015731;28;20221;-56
2023/06/27 01:12:21;;;;;;;0.50;0.50;;;;;17.80;96462.00;;;;5015132;28;20236;-56
2023/06/27 01:14:50;;;;;;;0.60;0.60;;;;;17.80;96462.00;;;;5014824;28;20272;-56
2023/06/27 01:17:19;;;;;;;0.83;0.83;;;;;17.80;96460.00;;;;5015039;28;20189;-56
2023/06/27 01:19:49;;;;;;;0.70;0.70;;;;;17.80;96461.00;;;;5015028;28;20600;-56
2023/06/27 01:22:19;;;;;;;0.60;0.60;;;;;17.90;96459.00;;;;5015148;28;20209;-56
2023/06/27 01:24:48;;;;;;;0.83;0.70;;;;;17.90;96459.00;;;;5014929;28;20190;-57
2023/06/27 01:27:16;;;;;;;0.80;0.80;;;;;17.90;96461.00;;;;5014823;28;20288;-56
2023/06/27 01:29:44;;;;;;;0.90;0.90;;;;;17.80;96464.00;;;;5014808;28;20649;-56
2023/06/27 01:32:22;;;;;;;0.80;0.80;;;;;17.90;96466.00;;;;5014846;28;20583;-56
2023/06/27 01:34:58;;;;;;;0.50;0.50;;;;;17.80;96460.00;;;;5014754;28;20186;-56
2023/06/27 01:37:30;;;;;;;0.50;0.50;;;;;17.90;96458.00;;;;5015121;28;20186;-56
2023/06/27 01:40:02;;;;;;;0.97;0.97;;;;;17.90;96462.00;;;;5014848;28;20217;-56
2023/06/27 01:42:32;;;;;;;1.13;1.03;;;;;17.80;96464.00;;;;5014682;28;20217;-56
2023/06/27 01:45:00;;;;;;;0.60;0.60;;;;;17.70;96474.00;;;;5014516;28;20645;-56
2023/06/27 01:47:29;;;;;;;0.63;0.63;;;;;17.70;96460.00;;;;5014699;28;20558;-56
2023/06/27 01:49:56;;;;;;;0.70;0.70;;;;;17.70;96465.00;;;;5014448;28;20205;-56
2023/06/27 01:52:24;;;;;;;0.50;0.50;;;;;17.70;96431.00;;;;5028774;22;20225;-55
2023/06/27 01:54:51;;;;;;;0.40;0.40;;;;;17.70;96468.00;;;;5013078;28;20201;-55
2023/06/27 01:57:20;;;;;;;0.50;0.50;;;;;17.70;96461.00;;;;5014356;28;20244;-55
2023/06/27 01:59:47;;;;;;;0.60;0.60;;;;;17.80;96455.00;;;;5014361;28;20260;-56
2023/06/27 02:02:15;;;;;;;1.90;0.80;;;;;17.80;96453.00;;;;5005502;28;20210;-55
2023/06/27 02:04:42;;;;;;;1.40;1.23;;;;;17.70;96455.00;;;;4994886;28;20198;-55
2023/06/27 02:07:09;;;;;;;0.70;0.70;;;;;17.70;96449.00;;;;4995133;28;20209;-55
2023/06/27 02:09:37;;;;;;;0.70;0.70;;;;;17.60;96453.00;;;;4994599;28;20197;-56
2023/06/27 02:12:05;;;;;;;0.60;0.60;;;;;17.70;96447.00;;;;4994395;28;20226;-55
2023/06/27 02:14:34;;;;;;;0.50;0.50;;;;;17.60;96447.00;;;;4994382;28;20245;-55
2023/06/27 02:17:01;;;;;;;0.70;0.70;;;;;17.60;96446.00;;;;4995389;28;20522;-55
2023/06/27 02:19:28;;;;;;;0.57;0.57;;;;;17.60;96446.00;;;;4993829;28;20194;-56
2023/06/27 02:21:56;;;;;;;0.50;0.50;;;;;17.40;96441.00;;;;4995027;28;20237;-56
2023/06/27 02:24:23;;;;;;;0.87;0.87;;;;;17.40;96450.00;;;;4994263;28;20198;-55
2023/06/27 02:26:51;;;;;;;0.93;0.80;;;;;17.20;96440.00;;;;4993515;28;20610;-55
2023/06/27 02:29:18;;;;;;;2.20;0.83;;;;;17.10;96450.00;;;;4994217;28;20732;-56
2023/06/27 02:31:47;;;;;;;2.43;1.03;;;;;17.10;96451.00;;;;4993971;28;20224;-56
2023/06/27 02:34:14;;;;;;;0.77;0.77;;;;;17.20;96446.00;;;;4994114;28;20277;-56
2023/06/27 02:36:42;;;;;;;0.47;0.47;;;;;17.10;96433.00;;;;4994311;28;20190;-56
2023/06/27 02:39:09;;;;;;;0.53;0.53;;;;;17.10;96437.00;;;;4993983;28;20190;-56
2023/06/27 02:41:36;;;;;;;0.60;0.60;;;;;17.10;96435.00;;;;4993914;28;20209;-56
2023/06/27 02:44:04;;;;;;;0.60;0.60;;;;;17.00;96440.00;;;;4993984;28;20198;-56
2023/06/27 02:46:31;;;;;;;1.30;0.77;;;;;17.00;96444.00;;;;4994124;28;20198;-56
2023/06/27 02:49:00;;;;;;;0.40;0.40;;;;;17.00;96442.00;;;;4992585;28;20653;-56
2023/06/27 02:51:27;;;;;;;0.77;0.77;;;;;16.90;96442.00;;;;4993556;28;20682;-56
2023/06/27 02:53:54;;;;;;;0.50;0.50;;;;;16.80;96438.00;;;;4993797;28;20206;-55
2023/06/27 02:56:22;;;;;;;0.87;0.87;;;;;16.70;96438.00;;;;4994000;28;20186;-55
2023/06/27 02:58:49;;;;;;;0.70;0.70;;;;;16.80;96442.00;;;;4994012;28;20554;-56
2023/06/27 03:01:17;;;;;;;0.80;0.80;;;;;16.90;96438.00;;;;4994183;28;20657;-58
2023/06/27 03:03:45;;;;;;;0.50;0.50;;;;;16.90;96438.00;;;;4993705;28;20197;-56
2023/06/27 03:06:14;;;;;;;0.57;0.57;;;;;17.00;96442.00;;;;4993648;28;20231;-57
2023/06/27 03:08:41;;;;;;;0.40;0.40;;;;;16.80;96433.00;;;;4993590;28;20208;-55
2023/06/27 03:11:09;;;;;;;0.70;0.70;;;;;16.70;96447.00;;;;4993768;28;20202;-56
2023/06/27 03:13:36;;;;;;;1.30;0.93;;;;;16.70;96449.00;;;;4993611;28;20209;-57
2023/06/27 03:16:05;;;;;;;0.50;0.50;;;;;16.70;96442.00;;;;4993745;28;20202;-55
2023/06/27 03:18:32;;;;;;;1.27;1.27;;;;;16.80;96445.00;;;;4993528;28;20205;-55
2023/06/27 03:20:59;;;;;;;0.70;0.70;;;;;16.70;96444.00;;;;4993805;28;20194;-58
2023/06/27 03:23:28;;;;;;;0.87;0.87;;;;;16.70;96449.00;;;;4993410;28;20206;-56
2023/06/27 03:25:58;;;;;;;0.60;0.60;;;;;16.70;96440.00;;;;4993493;28;20245;-55
2023/06/27 03:28:25;;;;;;;3.07;1.03;;;;;16.70;96439.00;;;;4993717;28;20198;-55
2023/06/27 03:30:53;;;;;;;0.60;0.60;;;;;16.60;96443.00;;;;4993410;28;20277;-55
2023/06/27 03:33:20;;;;;;;0.43;0.43;;;;;16.60;96439.00;;;;4991945;28;20249;-55
2023/06/27 03:35:47;;;;;;;0.70;0.70;;;;;16.60;96438.00;;;;4993341;28;20190;-55
2023/06/27 03:38:15;;;;;;;0.63;0.63;;;;;16.50;96447.00;;;;4995584;28;20193;-55
2023/06/27 03:40:44;;;;;;;0.90;0.90;;;;;16.60;96451.00;;;;4997752;28;20206;-55
2023/06/27 03:43:13;;;;;;;0.60;0.60;;;;;16.50;96444.00;;;;4997244;28;20206;-55
2023/06/27 03:45:41;;;;;;;0.80;0.80;;;;;16.40;96447.00;;;;4997197;28;20285;-55
2023/06/27 03:48:08;;;;;;;0.80;0.80;;;;;16.40;96443.00;;;;4997169;28;20198;-55
2023/06/27 03:50:36;;;;;;;1.20;1.07;;;;;16.40;96445.00;;;;4997138;28;20205;-55
2023/06/27 03:53:04;;;;;;;0.70;0.70;;;;;16.50;96442.00;;;;4995638;28;20309;-55
2023/06/27 03:55:33;;;;;;;0.60;0.60;;;;;16.50;96441.00;;;;4997297;28;20268;-55
2023/06/27 03:58:01;;;;;;;2.87;1.37;;;;;16.60;96433.00;;;;4997035;28;20198;-58
2023/06/27 04:00:29;;;;;;;0.83;0.83;;;;;16.60;96437.00;;;;4996932;28;20226;-55
2023/06/27 04:02:57;;;;;;;0.83;0.77;;;;;16.60;96441.00;;;;4996828;28;20218;-55
2023/06/27 04:05:24;;;;;;;0.70;0.70;;;;;16.60;96435.00;;;;4997082;28;20609;-55
2023/06/27 04:07:52;;;;;;;1.17;1.07;;;;;16.70;96439.00;;;;4996737;28;20519;-55
2023/06/27 04:10:19;;;;;;;0.93;0.93;;;;;16.60;96436.00;;;;4996673;28;20681;-55
2023/06/27 04:12:47;;;;;;;0.63;0.63;;;;;16.60;96438.00;;;;4996516;28;20222;-54
2023/06/27 04:15:15;;;;;;;0.50;0.50;;;;;16.50;96436.00;;;;4996619;28;20691;-55
2023/06/27 04:17:43;;;;;;;0.70;0.70;;;;;16.50;96437.00;;;;4996863;28;20202;-55
2023/06/27 04:20:11;;;;;;;0.40;0.40;;;;;16.50;96437.00;;;;4996581;28;20198;-55
2023/06/27 04:22:39;;;;;;;0.70;0.70;;;;;16.30;96443.00;;;;4996546;28;20218;-55
2023/06/27 04:25:08;;;;;;;0.90;0.90;;;;;16.10;96445.00;;;;4996630;28;20198;-55
2023/06/27 04:27:35;;;;;;;0.80;0.80;;;;;16.00;96433.00;;;;4996426;28;20194;-55
2023/06/27 04:30:03;;;;;;;2.00;1.07;;;;;16.10;96432.00;;;;4996796;28;20205;-55
2023/06/27 04:32:33;;;;;;;1.20;1.10;;;;;16.20;96433.00;;;;4996148;28;20218;-55
2023/06/27 04:35:01;;;;;;;0.80;0.80;;;;;16.10;96441.00;;;;4996249;28;20205;-56
2023/06/27 04:37:29;;;;;;;0.60;0.60;;;;;16.20;96437.00;;;;4996512;28;20573;-55
2023/06/27 04:39:56;;;;;;;0.87;0.87;;;;;16.30;96443.00;;;;4996412;28;20198;-55
2023/06/27 04:42:23;;;;;;;0.83;0.83;;;;;16.40;96441.00;;;;5011529;28;20214;-55
2023/06/27 04:44:51;;;;;;;0.60;0.60;;;;;16.20;96441.00;;;;4996060;28;20272;-55
2023/06/27 04:47:18;;;;;;;0.50;0.50;;;;;16.20;96444.00;;;;5011075;28;20210;-55
2023/06/27 04:49:47;;;;;;;0.73;0.70;;;;;16.20;96438.00;;;;4995633;28;20194;-56
2023/06/27 04:52:14;;;;;;;0.80;0.80;;;;;16.20;96442.00;;;;4995674;28;20304;-55
2023/06/27 04:54:42;;;;;;;0.97;0.93;;;;;16.20;96445.00;;;;4995935;28;20186;-56
2023/06/27 04:57:09;;;;;;;0.70;0.70;;;;;16.20;96461.00;;;;4994538;28;20205;-56
2023/06/27 04:59:36;;;;;;;0.70;0.70;;;;;16.30;96457.00;;;;5010777;28;20206;-56
2023/06/27 05:02:04;;;;;;;0.93;0.93;;;;;16.40;96452.00;;;;4995580;28;20221;-56
2023/06/27 05:04:32;;;;;;;1.23;1.13;;;;;16.50;96463.00;;;;4995800;28;20201;-56
2023/06/27 05:07:00;;;;;;;0.80;0.80;;;;;16.50;96466.00;;;;4996296;28;20202;-56
2023/06/27 05:09:30;;;;;;;6.30;1.33;;;;;16.60;96471.00;;;;4995731;28;20222;-55
2023/06/27 05:11:57;;;;;;;5.90;5.17;;;;;16.70;96459.00;;;;4995566;28;20221;-56
2023/06/27 05:14:24;;;;;;;1.03;1.03;;;;;16.60;96453.00;;;;4995623;28;20194;-54
2023/06/27 05:16:52;;;;;;;0.63;0.63;;;;;16.70;96463.00;;;;4995490;28;20190;-56
2023/06/27 05:19:19;;;;;;;0.53;0.53;;;;;16.70;96464.00;;;;4994081;28;20208;-55
2023/06/27 05:21:47;;;;;;;1.20;1.07;;;;;16.70;96457.00;;;;4995355;28;20214;-55
2023/06/27 05:24:15;;;;;;;0.73;0.73;;;;;16.80;96458.00;;;;4995938;28;20194;-55
2023/06/27 05:26:43;;;;;;;0.83;0.83;;;;;16.60;96454.00;;;;4994324;28;20212;-56
2023/06/27 05:29:10;;;;;;;0.50;0.50;;;;;16.50;96453.00;;;;4995399;28;20534;-55
2023/06/27 05:31:38;;;;;;;0.53;0.53;;;;;16.50;96459.00;;;;4995892;28;20218;-55
2023/06/27 05:34:05;;;;;;;0.97;0.97;;;;;16.80;96453.00;;;;5010234;28;20218;-55
2023/06/27 05:36:33;;;;;;;0.90;0.90;;;;;16.80;96449.00;;;;4995256;28;20206;-56
2023/06/27 05:39:01;;;;;;;0.70;0.70;;;;;17.00;96458.00;;;;4995101;28;20197;-55
2023/06/27 05:41:30;;;;;;;0.83;0.83;;;;;17.00;96465.00;;;;4995001;28;20198;-55
2023/06/27 05:43:57;;;;;;;1.07;1.03;;;;;17.00;96462.00;;;;4995288;28;20194;-55
2023/06/27 05:46:25;;;;;;;2.30;1.13;;;;;17.00;96460.00;;;;4995283;28;20198;-56
2023/06/27 05:48:52;;;;;;;0.60;0.60;;;;;17.20;96459.00;;;;4994840;28;20256;-55
2023/06/27 05:51:21;;;;;;;0.80;0.80;;;;;17.10;96466.00;;;;4994925;28;20201;-56
2023/06/27 05:53:49;;;;;;;0.73;0.73;;;;;17.20;96468.00;;;;4994561;28;20214;-54
2023/06/27 05:56:16;;;;;;;0.67;0.67;;;;;17.40;96472.00;;;;4994755;28;20198;-55
2023/06/27 05:58:45;;;;;;;0.47;0.47;;;;;17.50;96469.00;;;;4994965;28;20559;-55
2023/06/27 06:01:12;;;;;;;0.90;0.90;;;;;17.60;96471.00;;;;4993847;28;20201;-57
2023/06/27 06:03:40;;;;;;;2.93;1.57;;;;;17.70;96471.00;;;;4994586;28;20190;-55
2023/06/27 06:06:11;;;;;;;0.60;0.60;;;;;17.80;96471.00;;;;4994552;28;20666;-55
2023/06/27 06:08:39;;;;;;;0.83;0.83;;;;;17.90;96463.00;;;;4993249;28;20200;-55
2023/06/27 06:11:06;;;;;;;0.90;0.90;;;;;18.10;96456.00;;;;4994486;28;20194;-55
2023/06/27 06:13:33;;;;;;;0.50;0.50;;;;;18.00;96456.00;;;;4994257;28;20695;-56
2023/06/27 06:16:02;;;;;;;0.70;0.70;;;;;17.90;96460.00;;;;4994311;28;20624;-55
2023/06/27 06:18:30;;;;;;;0.70;0.70;;;;;18.20;96459.00;;;;4994639;28;20194;-55
2023/06/27 06:20:57;;;;;;;0.77;0.77;;;;;18.30;96451.00;;;;4994530;28;20195;-54
2023/06/27 06:23:24;;;;;;;0.80;0.80;;;;;18.30;96444.00;;;;4994112;28;20222;-55
2023/06/27 06:25:52;;;;;;;0.70;0.70;;;;;18.30;96449.00;;;;4994171;28;20194;-54
2023/06/27 06:28:19;;;;;;;0.57;0.57;;;;;18.20;96450.00;;;;4994122;28;20194;-54
2023/06/27 06:30:47;;;;;;;2.03;0.97;;;;;18.40;96456.00;;;;4994086;28;20202;-54
2023/06/27 06:33:15;;;;;;;0.40;0.40;;;;;18.70;96451.00;;;;4993857;28;20229;-54
2023/06/27 06:35:43;;;;;;;0.60;0.60;;;;;18.80;96452.00;;;;4993996;28;20217;-56
2023/06/27 06:38:10;;;;;;;0.50;0.50;;;;;18.70;96457.00;;;;4994032;28;20198;-56
2023/06/27 06:40:37;;;;;;;0.60;0.60;;;;;18.60;96455.00;;;;4991570;28;20198;-55
2023/06/27 06:43:05;;;;;;;1.17;0.80;;;;;18.60;96456.00;;;;5008878;28;20610;-56
2023/06/27 06:45:32;;;;;;;0.50;0.50;;;;;18.90;96459.00;;;;5012029;28;20203;-55
2023/06/27 06:48:00;;;;;;;0.73;0.73;;;;;19.20;96453.00;;;;5010550;28;20201;-56
2023/06/27 06:50:30;;;;;;;0.80;0.80;;;;;19.40;96452.00;;;;5011646;28;20193;-54
2023/06/27 06:52:58;;;;;;;0.63;0.63;;;;;19.40;96456.00;;;;5011351;28;20249;-55
2023/06/27 06:55:25;;;;;;;0.77;0.77;;;;;19.40;96462.00;;;;5011498;28;20204;-56
2023/06/27 06:57:53;;;;;;;0.70;0.70;;;;;19.10;96458.00;;;;5011767;28;20205;-55
2023/06/27 07:00:21;;;;;;;0.97;0.97;;;;;18.70;96453.00;;;;5011034;28;20205;-55
2023/06/27 07:02:48;;;;;;;1.17;1.17;;;;;19.00;96452.00;;;;5009976;28;20225;-56
2023/06/27 07:05:16;;;;;;;2.20;1.03;;;;;19.30;96451.00;;;;5010784;28;20264;-56
2023/06/27 07:07:46;;;;;;;0.60;0.60;;;;;19.40;96457.00;;;;5010872;28;20201;-57
2023/06/27 07:10:13;;;;;;;1.03;0.80;;;;;19.50;96449.00;;;;5011319;28;20197;-55
2023/06/27 07:12:41;;;;;;;0.67;0.67;;;;;19.60;96456.00;;;;5011159;28;20224;-55
2023/06/27 07:15:09;;;;;;;0.73;0.60;;;;;20.00;96451.00;;;;5010873;28;20260;-55
2023/06/27 07:17:37;;;;;;;0.83;0.83;;;;;20.10;96455.00;;;;5011355;28;20209;-55
2023/06/27 07:20:05;;;;;;;0.97;0.93;;;;;20.40;96445.00;;;;5011617;28;20620;-55
2023/06/27 07:22:33;;;;;;;0.67;0.67;;;;;20.40;96447.00;;;;5011026;28;20220;-55
2023/06/27 07:25:02;;;;;;;0.60;0.60;;;;;20.50;96445.00;;;;5009973;28;20201;-56
2023/06/27 07:27:29;;;;;;;2.20;1.17;;;;;20.40;96451.00;;;;5001590;28;20264;-56
2023/06/27 07:29:56;;;;;;;0.63;0.63;;;;;20.60;96440.00;;;;5011094;28;20217;-56
2023/06/27 07:32:24;;;;;;;0.60;0.60;;;;;20.80;96451.00;;;;5009541;28;20221;-55
2023/06/27 07:34:51;;;;;;;1.95;1.42;;;;;21.00;96461.00;;;;5011002;28;20218;-56
2023/06/27 07:37:19;;;;;;;0.47;0.47;;;;;21.00;96454.00;;;;5010988;28;20205;-56
2023/06/27 07:39:46;;;;;;;0.40;0.40;;;;;21.10;96463.00;;;;5010899;28;20208;-56
2023/06/27 07:42:16;;;;;;;0.40;0.40;;;;;21.20;96453.00;;;;5010985;28;20652;-56
2023/06/27 07:44:43;;;;;;;0.70;0.70;;;;;21.40;96459.00;;;;5010883;28;20236;-55
2023/06/27 07:47:11;;;;;;;0.90;0.90;;;;;21.50;96465.00;;;;5010361;28;20201;-56
2023/06/27 07:49:38;;;;;;;1.20;1.10;;;;;21.50;96462.00;;;;5009298;28;20201;-55
2023/06/27 07:52:07;;;;;;;0.80;0.80;;;;;21.60;96453.00;;;;5010935;28;20275;-56
2023/06/27 07:54:35;;;;;;;0.60;0.60;;;;;21.90;96461.00;;;;5010302;28;20263;-55
2023/06/27 07:57:02;;;;;;;0.50;0.50;;;;;21.80;96462.00;;;;5010610;28;20251;-56
2023/06/27 07:59:31;;;;;;;0.60;0.60;;;;;21.80;96457.00;;;;5011033;28;20197;-56
2023/06/27 08:01:59;;;;;;;0.70;0.70;;;;;22.10;96448.00;;;;5010545;28;20704;-57
2023/06/27 08:04:26;;;;;;;0.60;0.60;;;;;22.20;96455.00;;;;5010646;28;20193;-57
2023/06/27 08:06:54;;;;;;;0.73;0.73;;;;;22.20;96457.00;;;;5010567;28;20201;-56
2023/06/27 08:09:21;;;;;;;0.83;0.83;;;;;22.20;96449.00;;;;5010589;28;20197;-56
2023/06/27 08:11:50;;;;;;;0.70;0.70;;;;;22.40;96444.00;;;;5010584;28;20276;-55
2023/06/27 08:14:17;;;;;;;0.73;0.73;;;;;22.30;96450.00;;;;5010695;28;20229;-55
2023/06/27 08:16:46;;;;;;;1.40;0.90;;;;;22.50;96444.00;;;;5010778;28;20201;-55
2023/06/27 08:19:13;;;;;;;0.80;0.80;;;;;22.60;96449.00;;;;5010669;28;20577;-55
2023/06/27 08:21:41;;;;;;;0.60;0.60;;;;;22.60;96437.00;;;;5010062;28;20259;-56
2023/06/27 08:24:08;;;;;;;0.50;0.50;;;;;22.70;96434.00;;;;5010872;28;20240;-55
2023/06/27 08:26:36;;;;;;;0.40;0.40;;;;;22.90;96422.00;;;;5013991;28;20272;-57
2023/06/27 08:29:03;;;;;;;0.93;0.93;;;;;22.60;96424.00;;;;5012607;28;20201;-57
2023/06/27 08:31:31;;;;;;;0.50;0.50;;;;;22.10;96412.00;;;;5013864;28;20731;-55
2023/06/27 08:33:59;;;;;;;0.60;0.60;;;;;22.00;96404.00;;;;5013697;28;20220;-57
2023/06/27 08:36:27;;;;;;;0.73;0.73;;;;;22.10;96417.00;;;;5013722;28;20202;-56
2023/06/27 08:38:54;;;;;;;0.70;0.70;;;;;22.30;96405.00;;;;5014140;28;20252;-55
2023/06/27 08:41:22;;;;;;;0.55;0.55;;;;;22.50;96431.00;;;;5013826;28;20201;-55
2023/06/27 08:43:49;;;;;;;0.80;0.80;;;;;22.10;96420.00;;;;5013796;28;20771;-55
2023/06/27 08:46:18;;;;;;;0.47;0.47;;;;;22.20;96415.00;;;;5013715;28;20193;-55
2023/06/27 08:48:47;;;;;;;0.93;0.93;;;;;22.10;96419.00;;;;5013565;28;20205;-56
2023/06/27 08:51:18;;;;;;;0.68;0.68;;;;;21.80;96416.00;;;;5013458;28;20268;-56
2023/06/27 08:53:49;;;;;;;1.02;0.93;;;;;21.90;96424.00;;;;5013581;28;21408;-56
2023/06/27 08:56:19;;;;;;;0.60;0.60;;;;;22.00;96415.00;;;;5013566;28;20197;-56
2023/06/27 08:58:49;;;;;;;0.50;0.50;;;;;21.20;96416.00;;;;5013391;28;20194;-56
2023/06/27 09:01:17;;;;;;;1.15;1.15;;;;;21.60;96413.00;;;;5013236;28;20194;-56
2023/06/27 09:03:44;;;;;;;0.65;0.65;;;;;22.00;96411.00;;;;5013328;28;20212;-56
2023/06/27 09:06:15;;;;;;;1.05;1.05;;;;;22.50;96424.00;;;;5012926;28;20201;-54
2023/06/27 09:08:43;;;;;;;0.50;0.50;;;;;22.70;96417.00;;;;5014024;28;20189;-56
2023/06/27 09:11:10;;;;;;;0.65;0.65;;;;;23.10;96412.00;;;;5012974;28;20197;-53
2023/06/27 09:13:38;;;;;;;0.93;0.93;;;;;23.20;96405.00;;;;5013658;28;20303;-54
2023/06/27 09:16:06;;;;;;;0.52;0.52;;;;;23.20;96409.00;;;;5013026;28;20200;-54
2023/06/27 09:18:36;;;;;;;0.60;0.60;;;;;23.10;96398.00;;;;5013495;28;20193;-54
2023/06/27 09:21:04;;;;;;;2.22;1.05;;;;;23.20;96396.00;;;;5012903;28;20206;-54
2023/06/27 09:23:33;;;;;;;0.75;0.75;;;;;23.10;96389.00;;;;5013527;28;20587;-56
2023/06/27 09:26:08;;;;;;;0.60;0.60;;;;;23.20;96389.00;;;;5013024;28;20220;-56
2023/06/27 09:28:46;;;;;;;0.50;0.50;;;;;23.20;96389.00;;;;5012810;28;20203;-54
2023/06/27 09:31:14;;;;;;;1.85;1.00;;;;;22.30;96389.00;;;;5012647;28;20200;-54
2023/06/27 09:33:43;;;;;;;0.52;0.52;;;;;22.80;96400.00;;;;5012745;28;20239;-55
2023/06/27 09:36:11;;;;;;;1.00;1.00;;;;;23.00;96396.00;;;;5012543;28;20759;-55
2023/06/27 09:38:39;;;;;;;1.27;1.17;;;;;23.10;96397.00;;;;5012694;28;20206;-55
2023/06/27 09:41:08;;;;;;;0.60;0.60;;;;;23.30;96391.00;;;;5010015;28;20205;-55
2023/06/27 09:43:36;;;;;;;0.50;0.50;;;;;23.20;96407.00;;;;5012714;28;20194;-55
2023/06/27 09:46:04;;;;;;;0.60;0.60;;;;;23.00;96392.00;;;;5012554;28;20197;-55
2023/06/27 09:48:32;;;;;;;0.60;0.60;;;;;23.20;96393.00;;;;5012378;28;20354;-55
2023/06/27 09:51:00;;;;;;;0.98;0.98;;;;;22.50;96397.00;;;;5012330;28;20237;-55
2023/06/27 09:53:29;;;;;;;0.45;0.45;;;;;22.30;96392.00;;;;5012271;28;20723;-55
2023/06/27 09:56:01;;;;;;;0.38;0.38;;;;;22.80;96401.00;;;;5012214;28;20256;-55
2023/06/27 09:58:30;;;;;;;0.68;0.68;;;;;22.80;96406.00;;;;5012138;28;20284;-55
2023/06/27 10:01:05;;;;;;;0.57;0.57;;;;;23.30;96402.00;;;;5011062;28;20532;-56
2023/06/27 10:03:33;;;;;;;0.85;0.73;;;;;23.50;96393.00;;;;5004243;28;20225;-55
2023/06/27 10:06:01;;;;;;;0.50;0.50;;;;;23.60;96403.00;;;;5011989;28;20208;-55
2023/06/27 10:08:29;;;;;;;4.57;1.08;;;;;23.20;96404.00;;;;5010714;28;20694;-55
2023/06/27 10:10:58;;;;;;;0.50;0.50;;;;;23.30;96402.00;;;;5012536;28;20205;-55
2023/06/27 10:13:27;;;;;;;0.90;0.90;;;;;22.70;96400.00;;;;5011592;28;20253;-55
2023/06/27 10:15:55;;;;;;;0.95;0.95;;;;;23.00;96392.00;;;;5011811;28;20220;-55
2023/06/27 10:18:23;;;;;;;1.85;1.20;;;;;23.50;96396.00;;;;5011907;28;20205;-55
2023/06/27 10:20:51;;;;;;;0.85;0.85;;;;;23.30;96401.00;;;;5011840;28;20206;-55
2023/06/27 10:23:18;;;;;;;0.57;0.57;;;;;23.10;96402.00;;;;5011798;28;20260;-55
2023/06/27 10:25:46;;;;;;;0.40;0.40;;;;;23.20;96408.00;;;;5011906;28;20201;-56
2023/06/27 10:28:15;;;;;;;0.65;0.65;;;;;23.40;96410.00;;;;5011769;28;20248;-55
2023/06/27 10:30:47;;;;;;;0.63;0.63;;;;;23.60;96401.00;;;;5011804;28;20202;-55
2023/06/27 10:33:27;;;;;;;1.83;0.98;;;;;23.70;96392.00;;;;5011558;28;20221;-55
2023/06/27 10:35:58;;;;;;;0.75;0.75;;;;;24.00;96395.00;;;;5011690;28;20209;-55
2023/06/27 10:38:36;;;;;;;1.65;1.17;;;;;24.30;96391.00;;;;5011668;28;20189;-55
2023/06/27 10:41:23;;;;;;;1.25;1.15;;;;;24.30;96396.00;;;;5011516;28;20189;-55
2023/06/27 10:43:51;;;;;;;1.08;1.08;;;;;24.00;96400.00;;;;5011571;28;20186;-55
2023/06/27 10:46:21;;;;;;;0.65;0.65;;;;;24.10;96399.00;;;;5011404;28;20197;-55
2023/06/27 10:48:50;;;;;;;0.73;0.73;;;;;24.20;96394.00;;;;5011037;28;20201;-55
2023/06/27 10:51:19;;;;;;;0.90;0.90;;;;;24.40;96388.00;;;;5011606;28;20276;-55
2023/06/27 10:54:14;;;;;;;0.60;0.60;;;;;24.70;96393.00;;;;5009696;28;20558;-55
2023/06/27 10:56:43;;;;;;;0.60;0.60;;;;;24.70;96398.00;;;;5010968;28;20633;-55
2023/06/27 10:59:12;;;;;;;0.93;0.93;;;;;24.70;96394.00;;;;5011516;28;20197;-55
2023/06/27 11:01:44;;;;;;;0.60;0.60;;;;;24.10;96415.00;;;;5009987;28;20229;-55
2023/06/27 11:04:19;;;;;;;0.70;0.70;;;;;23.80;96409.00;;;;5011822;28;20192;-56
2023/06/27 11:06:47;;;;;;;0.40;0.40;;;;;24.00;96405.00;;;;5011141;28;20204;-57
2023/06/27 11:09:16;;;;;;;0.75;0.75;;;;;24.30;96400.00;;;;5010405;28;20198;-56
2023/06/27 11:11:54;;;;;;;0.80;0.80;;;;;24.40;96400.00;;;;5010989;28;20783;-57
2023/06/27 11:14:35;;;;;;;0.70;0.70;;;;;24.50;96406.00;;;;5011459;28;20240;-55
2023/06/27 11:17:04;;;;;;;0.40;0.40;;;;;24.30;96407.00;;;;5001537;28;20221;-54
2023/06/27 11:19:33;;;;;;;0.80;0.80;;;;;23.90;96416.00;;;;5011228;28;20660;-55
2023/06/27 11:22:01;;;;;;;0.50;0.50;;;;;23.90;96409.00;;;;5006966;28;20232;-54
2023/06/27 11:24:30;;;;;;;1.85;1.45;;;;;24.20;96408.00;;;;5006949;28;20198;-54
2023/06/27 11:26:58;;;;;;;0.80;0.80;;;;;24.60;96401.00;;;;5002492;28;20289;-54
2023/06/27 11:29:25;;;;;;;0.80;0.80;;;;;24.50;96404.00;;;;5011244;28;20564;-55
2023/06/27 11:31:54;;;;;;;3.03;0.93;;;;;23.20;96406.00;;;;5010899;28;20217;-55
2023/06/27 11:34:23;;;;;;;0.80;0.80;;;;;24.00;96382.00;;;;5010874;28;20244;-55
2023/06/27 11:36:51;;;;;;;0.70;0.70;;;;;24.40;96393.00;;;;5010869;28;20203;-55
2023/06/27 11:39:18;;;;;;;0.70;0.70;;;;;24.90;96392.00;;;;5010833;28;20252;-55
2023/06/27 11:41:46;;;;;;;1.38;1.08;;;;;24.70;96387.00;;;;5010982;28;20221;-54
2023/06/27 11:44:15;;;;;;;0.85;0.85;;;;;24.40;96385.00;;;;5011234;28;20553;-54
2023/06/27 11:46:50;;;;;;;0.70;0.70;;;;;25.20;96384.00;;;;5010727;28;20209;-56
2023/06/27 11:49:21;;;;;;;1.08;0.77;;;;;24.30;96396.00;;;;5010670;28;20196;-55
2023/06/27 11:51:51;;;;;;;0.80;0.80;;;;;24.50;96395.00;;;;5009925;28;20247;-55
2023/06/27 11:54:19;;;;;;;0.70;0.70;;;;;23.80;96401.00;;;;5010286;28;20213;-54
2023/06/27 11:56:47;;;;;;;0.68;0.68;;;;;23.10;96392.00;;;;5010972;28;20212;-54
2023/06/27 11:59:16;;;;;;;0.70;0.70;;;;;22.80;96377.00;;;;5011960;28;20209;-54
2023/06/27 12:01:44;;;;;;;0.50;0.50;;;;;22.90;96395.00;;;;5014733;28;20247;-54
2023/06/27 12:04:16;;;;;;;0.90;0.90;;;;;22.70;96390.00;;;;5014026;28;20205;-54
2023/06/27 12:06:45;;;;;;;0.85;0.85;;;;;23.20;96372.00;;;;5014642;28;20664;-54
2023/06/27 12:09:24;;;;;;;0.60;0.60;;;;;23.50;96357.00;;;;5012849;28;20215;-54
2023/06/27 12:11:53;;;;;;;0.85;0.75;;;;;24.60;96363.00;;;;5006222;28;20267;-54
2023/06/27 12:14:24;;;;;;;0.50;0.50;;;;;24.50;96374.00;;;;5014084;28;20300;-54
2023/06/27 12:16:52;;;;;;;1.27;1.17;;;;;23.40;96368.00;;;;5013968;28;20204;-54
2023/06/27 12:19:21;;;;;;;0.63;0.63;;;;;23.40;96346.00;;;;5012515;28;20216;-54
2023/06/27 12:21:51;;;;;;;0.55;0.55;;;;;24.20;96357.00;;;;5013815;28;20221;-55
2023/06/27 12:24:19;;;;;;;0.47;0.47;;;;;24.80;96336.00;;;;5012544;28;20328;-55